sensor_id;sensor_type;location;lat;lon;timestamp;temperature;humidity
20483;DHT22;10400;53.198;6.592;2024-03-23T00:54:22;7.20;99.90
20483;DHT22;10400;53.198;6.592;2024-03-23T00:56:48;7.10;99.90
20483;DHT22;10400;53.198;6.592;2024-03-23T00:59:13;7.10;99.90
20483;DHT22;10400;53.198;6.592;2024-03-23T01:01:39;7.00;99.90
20483;DHT22;10400;53.198;6.592;2024-03-23T01:04:05;7.00;99.90
20483;DHT22;10400;53.198;6.592;2024-03-23T01:06:30;7.00;99.90
20483;DHT22;10400;53.198;6.592;2024-03-23T01:08:56;7.00;99.90
20483;DHT22;10400;53.198;6.592;2024-03-23T01:11:22;6.90;99.90
20483;DHT22;10400;53.198;6.592;2024-03-23T01:13:47;6.90;99.90
20483;DHT22;10400;53.198;6.592;2024-03-23T01:16:13;6.80;99.90
20483;DHT22;10400;53.198;6.592;2024-03-23T01:18:38;6.80;99.90
20483;DHT22;10400;53.198;6.592;2024-03-23T01:21:04;6.80;99.90
20483;DHT22;10400;53.198;6.592;2024-03-23T01:23:30;6.80;99.90
20483;DHT22;10400;53.198;6.592;2024-03-23T01:25:55;6.80;99.90
20483;DHT22;10400;53.198;6.592;2024-03-23T01:28:21;6.70;99.90
20483;DHT22;10400;53.198;6.592;2024-03-23T01:30:48;6.80;99.90
20483;DHT22;10400;53.198;6.592;2024-03-23T01:33:14;6.70;99.90
20483;DHT22;10400;53.198;6.592;2024-03-23T01:35:39;6.70;99.90
20483;DHT22;10400;53.198;6.592;2024-03-23T01:38:05;6.70;99.90
20483;DHT22;10400;53.198;6.592;2024-03-23T01:40:31;6.80;99.90
20483;DHT22;10400;53.198;6.592;2024-03-23T01:43:09;6.60;99.90
20483;DHT22;10400;53.198;6.592;2024-03-23T01:45:35;6.60;99.90
20483;DHT22;10400;53.198;6.592;2024-03-23T01:48:01;6.60;99.90
20483;DHT22;10400;53.198;6.592;2024-03-23T01:50:27;6.50;99.90
20483;DHT22;10400;53.198;6.592;2024-03-23T01:52:54;6.50;99.90
20483;DHT22;10400;53.198;6.592;2024-03-23T01:55:20;6.50;99.90
20483;DHT22;10400;53.198;6.592;2024-03-23T01:57:46;6.50;99.90
20483;DHT22;10400;53.198;6.592;2024-03-23T02:00:12;6.40;99.90
20483;DHT22;10400;53.198;6.592;2024-03-23T02:02:45;6.50;99.90
20483;DHT22;10400;53.198;6.592;2024-03-23T02:05:14;6.50;99.90
20483;DHT22;10400;53.198;6.592;2024-03-23T02:07:40;6.40;99.90
20483;DHT22;10400;53.198;6.592;2024-03-23T02:10:07;6.40;99.90
20483;DHT22;10400;53.198;6.592;2024-03-23T02:12:33;6.30;99.90
20483;DHT22;10400;53.198;6.592;2024-03-23T02:14:58;6.40;99.90
20483;DHT22;10400;53.198;6.592;2024-03-23T02:17:24;6.40;99.90
20483;DHT22;10400;53.198;6.592;2024-03-23T02:19:50;6.40;99.90
20483;DHT22;10400;53.198;6.592;2024-03-23T02:22:16;6.30;99.90
20483;DHT22;10400;53.198;6.592;2024-03-23T02:24:42;6.30;99.90
20483;DHT22;10400;53.198;6.592;2024-03-23T02:27:08;6.20;99.90
20483;DHT22;10400;53.198;6.592;2024-03-23T02:29:33;6.30;99.90
20483;DHT22;10400;53.198;6.592;2024-03-23T02:31:59;6.30;99.90
20483;DHT22;10400;53.198;6.592;2024-03-23T02:34:25;6.20;99.90
20483;DHT22;10400;53.198;6.592;2024-03-23T02:36:51;6.30;99.90
20483;DHT22;10400;53.198;6.592;2024-03-23T02:39:16;6.20;99.90
20483;DHT22;10400;53.198;6.592;2024-03-23T02:41:42;6.20;99.90
20483;DHT22;10400;53.198;6.592;2024-03-23T02:44:07;6.20;99.90
20483;DHT22;10400;53.198;6.592;2024-03-23T02:46:33;6.20;99.90
20483;DHT22;10400;53.198;6.592;2024-03-23T02:48:59;6.20;99.90
20483;DHT22;10400;53.198;6.592;2024-03-23T02:51:24;6.20;99.90
20483;DHT22;10400;53.198;6.592;2024-03-23T02:53:50;6.20;99.90
20483;DHT22;10400;53.198;6.592;2024-03-23T02:56:16;6.20;99.90
20483;DHT22;10400;53.198;6.592;2024-03-23T02:58:45;6.30;99.90
20483;DHT22;10400;53.198;6.592;2024-03-23T03:01:10;6.20;99.90
20483;DHT22;10400;53.198;6.592;2024-03-23T03:03:36;6.20;99.90
20483;DHT22;10400;53.198;6.592;2024-03-23T03:06:02;6.20;99.90
20483;DHT22;10400;53.198;6.592;2024-03-23T03:08:27;6.20;99.90
20483;DHT22;10400;53.198;6.592;2024-03-23T03:10:53;6.20;99.90
20483;DHT22;10400;53.198;6.592;2024-03-23T03:13:19;6.10;99.90
20483;DHT22;10400;53.198;6.592;2024-03-23T03:15:44;6.10;99.90
20483;DHT22;10400;53.198;6.592;2024-03-23T03:18:10;6.10;99.90
20483;DHT22;10400;53.198;6.592;2024-03-23T03:20:39;6.10;99.90
20483;DHT22;10400;53.198;6.592;2024-03-23T03:23:06;6.10;99.90
20483;DHT22;10400;53.198;6.592;2024-03-23T03:25:32;6.00;99.90
20483;DHT22;10400;53.198;6.592;2024-03-23T03:27:57;6.00;99.90
20483;DHT22;10400;53.198;6.592;2024-03-23T03:30:23;6.00;99.90
20483;DHT22;10400;53.198;6.592;2024-03-23T03:32:49;6.00;99.90
20483;DHT22;10400;53.198;6.592;2024-03-23T03:35:15;6.00;99.90
20483;DHT22;10400;53.198;6.592;2024-03-23T03:37:41;5.90;99.90
20483;DHT22;10400;53.198;6.592;2024-03-23T03:40:07;6.00;99.90
20483;DHT22;10400;53.198;6.592;2024-03-23T03:42:34;6.00;99.90
20483;DHT22;10400;53.198;6.592;2024-03-23T03:45:00;6.00;99.90
20483;DHT22;10400;53.198;6.592;2024-03-23T03:47:26;5.90;99.90
20483;DHT22;10400;53.198;6.592;2024-03-23T03:49:51;5.90;99.90
20483;DHT22;10400;53.198;6.592;2024-03-23T03:52:17;5.90;99.90
20483;DHT22;10400;53.198;6.592;2024-03-23T03:54:42;5.90;99.90
20483;DHT22;10400;53.198;6.592;2024-03-23T03:57:08;5.80;99.90
20483;DHT22;10400;53.198;6.592;2024-03-23T03:59:34;5.80;99.90
20483;DHT22;10400;53.198;6.592;2024-03-23T04:01:59;5.80;99.90
20483;DHT22;10400;53.198;6.592;2024-03-23T04:04:25;5.80;99.90
20483;DHT22;10400;53.198;6.592;2024-03-23T04:07:01;5.80;99.90
20483;DHT22;10400;53.198;6.592;2024-03-23T04:09:27;5.80;99.90
20483;DHT22;10400;53.198;6.592;2024-03-23T04:11:53;5.80;99.90
20483;DHT22;10400;53.198;6.592;2024-03-23T04:14:18;5.70;99.90
20483;DHT22;10400;53.198;6.592;2024-03-23T04:16:44;5.80;99.90
20483;DHT22;10400;53.198;6.592;2024-03-23T04:19:10;5.80;99.90
20483;DHT22;10400;53.198;6.592;2024-03-23T04:21:37;5.80;99.90
20483;DHT22;10400;53.198;6.592;2024-03-23T04:24:03;5.70;99.90
20483;DHT22;10400;53.198;6.592;2024-03-23T04:26:28;5.70;99.90
20483;DHT22;10400;53.198;6.592;2024-03-23T04:28:54;5.70;99.90
20483;DHT22;10400;53.198;6.592;2024-03-23T04:31:19;5.80;99.90
20483;DHT22;10400;53.198;6.592;2024-03-23T04:33:45;5.70;99.90
20483;DHT22;10400;53.198;6.592;2024-03-23T04:36:11;5.70;99.90
20483;DHT22;10400;53.198;6.592;2024-03-23T04:38:36;5.70;99.90
20483;DHT22;10400;53.198;6.592;2024-03-23T04:41:02;5.70;99.90
20483;DHT22;10400;53.198;6.592;2024-03-23T04:43:28;5.70;99.90
20483;DHT22;10400;53.198;6.592;2024-03-23T04:45:54;5.70;99.90
20483;DHT22;10400;53.198;6.592;2024-03-23T04:48:21;5.70;99.90
20483;DHT22;10400;53.198;6.592;2024-03-23T04:50:48;5.60;99.90
20483;DHT22;10400;53.198;6.592;2024-03-23T04:53:15;5.70;99.90
20483;DHT22;10400;53.198;6.592;2024-03-23T04:55:41;5.60;99.90
20483;DHT22;10400;53.198;6.592;2024-03-23T04:58:07;5.70;99.90
20483;DHT22;10400;53.198;6.592;2024-03-23T05:00:33;5.60;99.90
20483;DHT22;10400;53.198;6.592;2024-03-23T05:02:58;5.60;99.90
20483;DHT22;10400;53.198;6.592;2024-03-23T05:05:24;5.60;99.90
20483;DHT22;10400;53.198;6.592;2024-03-23T05:07:49;5.60;99.90
20483;DHT22;10400;53.198;6.592;2024-03-23T05:10:15;5.60;99.90
20483;DHT22;10400;53.198;6.592;2024-03-23T05:12:41;5.60;99.90
20483;DHT22;10400;53.198;6.592;2024-03-23T05:15:07;5.60;99.90
20483;DHT22;10400;53.198;6.592;2024-03-23T05:17:33;5.50;99.90
20483;DHT22;10400;53.198;6.592;2024-03-23T05:19:59;5.50;99.90
20483;DHT22;10400;53.198;6.592;2024-03-23T05:22:25;5.50;99.90
20483;DHT22;10400;53.198;6.592;2024-03-23T05:24:52;5.50;99.90
20483;DHT22;10400;53.198;6.592;2024-03-23T05:27:18;5.50;99.90
20483;DHT22;10400;53.198;6.592;2024-03-23T05:29:44;5.50;99.90
20483;DHT22;10400;53.198;6.592;2024-03-23T05:32:09;5.60;99.90
20483;DHT22;10400;53.198;6.592;2024-03-23T05:34:35;5.70;99.90
20483;DHT22;10400;53.198;6.592;2024-03-23T05:37:01;5.60;99.90
20483;DHT22;10400;53.198;6.592;2024-03-23T05:39:26;5.60;99.90
20483;DHT22;10400;53.198;6.592;2024-03-23T05:41:52;5.60;99.90
20483;DHT22;10400;53.198;6.592;2024-03-23T05:44:18;5.60;99.90
20483;DHT22;10400;53.198;6.592;2024-03-23T05:46:44;5.60;99.90
20483;DHT22;10400;53.198;6.592;2024-03-23T05:49:14;5.50;99.90
20483;DHT22;10400;53.198;6.592;2024-03-23T05:51:39;5.60;99.90
20483;DHT22;10400;53.198;6.592;2024-03-23T05:54:05;5.60;99.90
20483;DHT22;10400;53.198;6.592;2024-03-23T05:56:31;5.60;99.90
20483;DHT22;10400;53.198;6.592;2024-03-23T05:58:57;5.50;99.90
20483;DHT22;10400;53.198;6.592;2024-03-23T06:01:22;5.60;99.90
20483;DHT22;10400;53.198;6.592;2024-03-23T06:03:48;5.80;99.90
20483;DHT22;10400;53.198;6.592;2024-03-23T06:06:14;5.80;99.90
20483;DHT22;10400;53.198;6.592;2024-03-23T06:08:39;6.00;99.90
20483;DHT22;10400;53.198;6.592;2024-03-23T06:11:06;6.10;99.90
20483;DHT22;10400;53.198;6.592;2024-03-23T06:13:32;6.20;99.90
20483;DHT22;10400;53.198;6.592;2024-03-23T06:15:59;6.20;99.90
20483;DHT22;10400;53.198;6.592;2024-03-23T06:18:25;6.20;99.90
20483;DHT22;10400;53.198;6.592;2024-03-23T06:20:51;6.20;99.90
20483;DHT22;10400;53.198;6.592;2024-03-23T06:23:17;6.10;99.90
20483;DHT22;10400;53.198;6.592;2024-03-23T06:25:45;6.10;99.90
20483;DHT22;10400;53.198;6.592;2024-03-23T06:28:11;6.10;99.90
20483;DHT22;10400;53.198;6.592;2024-03-23T06:30:36;6.20;99.90
20483;DHT22;10400;53.198;6.592;2024-03-23T06:33:02;6.00;99.90
20483;DHT22;10400;53.198;6.592;2024-03-23T06:35:28;6.00;99.90
20483;DHT22;10400;53.198;6.592;2024-03-23T06:37:53;6.00;99.90
20483;DHT22;10400;53.198;6.592;2024-03-23T06:40:19;6.00;99.90
20483;DHT22;10400;53.198;6.592;2024-03-23T06:42:45;6.10;99.90
20483;DHT22;10400;53.198;6.592;2024-03-23T06:45:10;6.20;99.90
20483;DHT22;10400;53.198;6.592;2024-03-23T06:47:36;6.30;99.90
20483;DHT22;10400;53.198;6.592;2024-03-23T06:50:03;6.30;99.90
20483;DHT22;10400;53.198;6.592;2024-03-23T06:52:29;6.30;99.90
20483;DHT22;10400;53.198;6.592;2024-03-23T06:54:55;6.30;99.90
20483;DHT22;10400;53.198;6.592;2024-03-23T06:57:21;6.40;99.90
20483;DHT22;10400;53.198;6.592;2024-03-23T06:59:47;6.50;99.90
20483;DHT22;10400;53.198;6.592;2024-03-23T07:02:13;6.70;99.90
20483;DHT22;10400;53.198;6.592;2024-03-23T07:04:38;6.90;99.90
20483;DHT22;10400;53.198;6.592;2024-03-23T07:07:07;6.80;99.90
20483;DHT22;10400;53.198;6.592;2024-03-23T07:09:32;6.80;99.90
20483;DHT22;10400;53.198;6.592;2024-03-23T07:11:58;6.70;99.90
20483;DHT22;10400;53.198;6.592;2024-03-23T07:14:24;6.70;99.90
20483;DHT22;10400;53.198;6.592;2024-03-23T07:16:50;6.70;99.90
20483;DHT22;10400;53.198;6.592;2024-03-23T07:19:17;6.70;99.90
20483;DHT22;10400;53.198;6.592;2024-03-23T07:21:43;6.70;99.90
20483;DHT22;10400;53.198;6.592;2024-03-23T07:24:09;6.80;99.90
20483;DHT22;10400;53.198;6.592;2024-03-23T07:26:35;6.70;99.90
20483;DHT22;10400;53.198;6.592;2024-03-23T07:29:01;6.60;99.90
20483;DHT22;10400;53.198;6.592;2024-03-23T07:31:27;6.60;99.90
20483;DHT22;10400;53.198;6.592;2024-03-23T07:33:53;6.60;99.90
20483;DHT22;10400;53.198;6.592;2024-03-23T07:36:19;6.60;99.90
20483;DHT22;10400;53.198;6.592;2024-03-23T07:38:45;6.60;99.90
20483;DHT22;10400;53.198;6.592;2024-03-23T07:41:13;6.70;99.90
20483;DHT22;10400;53.198;6.592;2024-03-23T07:43:40;6.70;99.90
20483;DHT22;10400;53.198;6.592;2024-03-23T07:46:06;6.80;99.90
20483;DHT22;10400;53.198;6.592;2024-03-23T07:48:32;6.90;99.90
20483;DHT22;10400;53.198;6.592;2024-03-23T07:53:24;7.10;99.90
20483;DHT22;10400;53.198;6.592;2024-03-23T07:55:58;7.10;99.90
20483;DHT22;10400;53.198;6.592;2024-03-23T07:58:24;7.30;99.90
20483;DHT22;10400;53.198;6.592;2024-03-23T08:00:50;7.30;99.90
20483;DHT22;10400;53.198;6.592;2024-03-23T08:03:15;7.40;99.90
20483;DHT22;10400;53.198;6.592;2024-03-23T08:05:41;7.50;99.90
20483;DHT22;10400;53.198;6.592;2024-03-23T08:08:07;7.60;99.90
20483;DHT22;10400;53.198;6.592;2024-03-23T08:10:33;7.90;99.90
20483;DHT22;10400;53.198;6.592;2024-03-23T08:12:58;8.20;99.90
20483;DHT22;10400;53.198;6.592;2024-03-23T08:15:24;8.20;99.90
20483;DHT22;10400;53.198;6.592;2024-03-23T08:17:53;8.10;99.90
20483;DHT22;10400;53.198;6.592;2024-03-23T08:20:18;7.90;99.90
20483;DHT22;10400;53.198;6.592;2024-03-23T08:22:44;7.60;99.90
20483;DHT22;10400;53.198;6.592;2024-03-23T08:25:09;7.40;99.90
20483;DHT22;10400;53.198;6.592;2024-03-23T08:27:35;7.40;99.90
20483;DHT22;10400;53.198;6.592;2024-03-23T08:30:00;7.40;99.90
20483;DHT22;10400;53.198;6.592;2024-03-23T08:32:26;7.50;99.90
20483;DHT22;10400;53.198;6.592;2024-03-23T08:34:52;7.50;99.90
20483;DHT22;10400;53.198;6.592;2024-03-23T08:37:17;7.60;99.90
20483;DHT22;10400;53.198;6.592;2024-03-23T08:39:43;7.80;99.90
20483;DHT22;10400;53.198;6.592;2024-03-23T08:42:09;7.80;99.90
20483;DHT22;10400;53.198;6.592;2024-03-23T08:44:35;7.90;99.90
20483;DHT22;10400;53.198;6.592;2024-03-23T08:47:01;8.00;99.90
20483;DHT22;10400;53.198;6.592;2024-03-23T08:49:27;8.00;99.90
20483;DHT22;10400;53.198;6.592;2024-03-23T08:51:53;8.20;99.90
20483;DHT22;10400;53.198;6.592;2024-03-23T08:54:19;8.10;99.90
20483;DHT22;10400;53.198;6.592;2024-03-23T08:56:46;8.20;99.90
20483;DHT22;10400;53.198;6.592;2024-03-23T08:59:11;8.40;99.90
20483;DHT22;10400;53.198;6.592;2024-03-23T09:01:37;8.40;99.90
20483;DHT22;10400;53.198;6.592;2024-03-23T09:04:03;8.40;99.90
20483;DHT22;10400;53.198;6.592;2024-03-23T09:06:29;8.40;99.90
20483;DHT22;10400;53.198;6.592;2024-03-23T09:08:55;8.60;99.90
20483;DHT22;10400;53.198;6.592;2024-03-23T09:11:21;8.80;99.90
20483;DHT22;10400;53.198;6.592;2024-03-23T09:13:46;8.80;99.90
20483;DHT22;10400;53.198;6.592;2024-03-23T09:16:12;8.90;99.90
20483;DHT22;10400;53.198;6.592;2024-03-23T09:18:38;9.10;99.90
20483;DHT22;10400;53.198;6.592;2024-03-23T09:21:09;9.20;99.90
20483;DHT22;10400;53.198;6.592;2024-03-23T09:23:36;9.30;99.90
20483;DHT22;10400;53.198;6.592;2024-03-23T09:26:04;9.20;99.90
20483;DHT22;10400;53.198;6.592;2024-03-23T09:28:30;9.30;99.90
20483;DHT22;10400;53.198;6.592;2024-03-23T09:31:05;9.60;99.90
20483;DHT22;10400;53.198;6.592;2024-03-23T09:33:31;9.80;99.90
20483;DHT22;10400;53.198;6.592;2024-03-23T09:35:56;10.00;99.90
20483;DHT22;10400;53.198;6.592;2024-03-23T09:38:25;10.00;99.90
20483;DHT22;10400;53.198;6.592;2024-03-23T09:40:53;9.40;99.90
20483;DHT22;10400;53.198;6.592;2024-03-23T09:43:19;7.80;99.90
20483;DHT22;10400;53.198;6.592;2024-03-23T09:45:45;6.90;99.90
20483;DHT22;10400;53.198;6.592;2024-03-23T09:48:10;6.50;99.90
20483;DHT22;10400;53.198;6.592;2024-03-23T09:50:41;6.50;99.90
20483;DHT22;10400;53.198;6.592;2024-03-23T09:53:07;6.50;99.90
20483;DHT22;10400;53.198;6.592;2024-03-23T09:55:34;6.50;99.90
20483;DHT22;10400;53.198;6.592;2024-03-23T09:58:01;6.60;99.90
20483;DHT22;10400;53.198;6.592;2024-03-23T10:00:27;6.80;99.90
20483;DHT22;10400;53.198;6.592;2024-03-23T10:02:55;6.90;99.90
20483;DHT22;10400;53.198;6.592;2024-03-23T10:05:22;7.20;99.90
20483;DHT22;10400;53.198;6.592;2024-03-23T10:07:52;7.30;99.90
20483;DHT22;10400;53.198;6.592;2024-03-23T10:10:18;7.50;99.90
20483;DHT22;10400;53.198;6.592;2024-03-23T10:12:48;7.70;99.90
20483;DHT22;10400;53.198;6.592;2024-03-23T10:15:24;7.90;99.90
20483;DHT22;10400;53.198;6.592;2024-03-23T10:17:50;8.00;99.90
20483;DHT22;10400;53.198;6.592;2024-03-23T10:20:21;8.10;99.90
20483;DHT22;10400;53.198;6.592;2024-03-23T10:22:50;8.30;99.90
20483;DHT22;10400;53.198;6.592;2024-03-23T10:25:17;8.60;99.90
20483;DHT22;10400;53.198;6.592;2024-03-23T10:27:43;8.70;99.90
20483;DHT22;10400;53.198;6.592;2024-03-23T10:32:38;8.90;99.90
20483;DHT22;10400;53.198;6.592;2024-03-23T10:35:22;9.10;99.90
20483;DHT22;10400;53.198;6.592;2024-03-23T10:37:48;9.30;99.90
20483;DHT22;10400;53.198;6.592;2024-03-23T10:40:17;9.10;99.90
20483;DHT22;10400;53.198;6.592;2024-03-23T10:42:46;9.10;99.90
20483;DHT22;10400;53.198;6.592;2024-03-23T10:45:12;9.00;99.90
20483;DHT22;10400;53.198;6.592;2024-03-23T10:47:38;8.60;99.90
20483;DHT22;10400;53.198;6.592;2024-03-23T10:50:06;8.60;99.90
20483;DHT22;10400;53.198;6.592;2024-03-23T10:52:35;8.70;99.90
20483;DHT22;10400;53.198;6.592;2024-03-23T10:55:05;8.80;99.90
20483;DHT22;10400;53.198;6.592;2024-03-23T10:57:44;9.10;99.90
20483;DHT22;10400;53.198;6.592;2024-03-23T11:00:11;9.10;99.90
20483;DHT22;10400;53.198;6.592;2024-03-23T11:02:37;9.50;99.90
20483;DHT22;10400;53.198;6.592;2024-03-23T11:07:52;9.30;99.90
20483;DHT22;10400;53.198;6.592;2024-03-23T11:10:29;9.00;99.90
20483;DHT22;10400;53.198;6.592;2024-03-23T11:12:56;8.30;99.90
20483;DHT22;10400;53.198;6.592;2024-03-23T11:15:22;7.90;99.90
20483;DHT22;10400;53.198;6.592;2024-03-23T11:18:03;7.70;99.90
20483;DHT22;10400;53.198;6.592;2024-03-23T11:20:34;7.50;99.90
20483;DHT22;10400;53.198;6.592;2024-03-23T11:23:00;7.40;99.90
20483;DHT22;10400;53.198;6.592;2024-03-23T11:25:30;7.40;99.90
20483;DHT22;10400;53.198;6.592;2024-03-23T11:28:10;7.30;99.90
20483;DHT22;10400;53.198;6.592;2024-03-23T11:30:36;7.30;99.90
20483;DHT22;10400;53.198;6.592;2024-03-23T11:33:04;7.50;99.90
20483;DHT22;10400;53.198;6.592;2024-03-23T11:35:34;7.80;99.90
20483;DHT22;10400;53.198;6.592;2024-03-23T11:38:07;8.10;99.90
20483;DHT22;10400;53.198;6.592;2024-03-23T11:40:33;8.30;99.90
20483;DHT22;10400;53.198;6.592;2024-03-23T11:43:07;8.50;99.90
20483;DHT22;10400;53.198;6.592;2024-03-23T11:45:46;8.90;99.90
20483;DHT22;10400;53.198;6.592;2024-03-23T11:48:17;9.20;99.90
20483;DHT22;10400;53.198;6.592;2024-03-23T11:50:45;9.30;99.90
20483;DHT22;10400;53.198;6.592;2024-03-23T11:53:20;9.50;99.90
20483;DHT22;10400;53.198;6.592;2024-03-23T11:58:25;9.50;99.90
20483;DHT22;10400;53.198;6.592;2024-03-23T12:00:53;9.20;99.90
20483;DHT22;10400;53.198;6.592;2024-03-23T12:03:19;9.10;99.90
20483;DHT22;10400;53.198;6.592;2024-03-23T12:05:51;9.30;99.90
20483;DHT22;10400;53.198;6.592;2024-03-23T12:08:25;9.10;99.90
20483;DHT22;10400;53.198;6.592;2024-03-23T12:11:16;8.70;99.90
20483;DHT22;10400;53.198;6.592;2024-03-23T12:13:44;8.60;99.90
20483;DHT22;10400;53.198;6.592;2024-03-23T12:16:17;8.70;99.90
20483;DHT22;10400;53.198;6.592;2024-03-23T12:18:48;8.80;99.90
20483;DHT22;10400;53.198;6.592;2024-03-23T12:21:15;8.90;99.90
20483;DHT22;10400;53.198;6.592;2024-03-23T12:23:41;8.70;99.90
20483;DHT22;10400;53.198;6.592;2024-03-23T12:26:08;8.40;99.90
20483;DHT22;10400;53.198;6.592;2024-03-23T12:28:34;7.90;99.90
20483;DHT22;10400;53.198;6.592;2024-03-23T12:31:00;7.80;99.90
20483;DHT22;10400;53.198;6.592;2024-03-23T12:33:26;7.70;99.90
20483;DHT22;10400;53.198;6.592;2024-03-23T12:35:51;7.60;99.90
20483;DHT22;10400;53.198;6.592;2024-03-23T12:38:17;7.60;99.90
20483;DHT22;10400;53.198;6.592;2024-03-23T12:40:49;7.80;99.90
20483;DHT22;10400;53.198;6.592;2024-03-23T12:43:16;8.00;99.90
20483;DHT22;10400;53.198;6.592;2024-03-23T12:45:46;7.80;99.90
20483;DHT22;10400;53.198;6.592;2024-03-23T12:48:12;7.80;99.90
20483;DHT22;10400;53.198;6.592;2024-03-23T12:50:37;7.70;99.90
20483;DHT22;10400;53.198;6.592;2024-03-23T12:53:03;7.70;99.90
20483;DHT22;10400;53.198;6.592;2024-03-23T12:55:29;7.60;99.90
20483;DHT22;10400;53.198;6.592;2024-03-23T12:57:55;7.40;99.90
20483;DHT22;10400;53.198;6.592;2024-03-23T13:00:20;7.10;99.90
20483;DHT22;10400;53.198;6.592;2024-03-23T13:02:46;7.10;99.90
20483;DHT22;10400;53.198;6.592;2024-03-23T13:05:11;7.10;99.90
20483;DHT22;10400;53.198;6.592;2024-03-23T13:07:37;7.50;99.90
20483;DHT22;10400;53.198;6.592;2024-03-23T13:10:04;7.60;99.90
20483;DHT22;10400;53.198;6.592;2024-03-23T13:12:31;7.80;99.90
20483;DHT22;10400;53.198;6.592;2024-03-23T13:14:58;8.00;99.90
20483;DHT22;10400;53.198;6.592;2024-03-23T13:17:25;8.20;99.90
20483;DHT22;10400;53.198;6.592;2024-03-23T13:19:52;8.20;99.90
20483;DHT22;10400;53.198;6.592;2024-03-23T13:22:18;8.10;99.90
20483;DHT22;10400;53.198;6.592;2024-03-23T13:24:44;8.20;99.90
20483;DHT22;10400;53.198;6.592;2024-03-23T13:27:10;8.30;99.90
20483;DHT22;10400;53.198;6.592;2024-03-23T13:29:36;8.40;99.90
20483;DHT22;10400;53.198;6.592;2024-03-23T13:32:03;8.50;99.90
20483;DHT22;10400;53.198;6.592;2024-03-23T13:34:29;8.60;99.90
20483;DHT22;10400;53.198;6.592;2024-03-23T13:36:55;8.70;99.90
20483;DHT22;10400;53.198;6.592;2024-03-23T13:39:23;8.80;99.90
20483;DHT22;10400;53.198;6.592;2024-03-23T13:41:49;8.90;99.90
20483;DHT22;10400;53.198;6.592;2024-03-23T13:44:15;8.90;99.90
20483;DHT22;10400;53.198;6.592;2024-03-23T13:46:42;8.90;99.90
20483;DHT22;10400;53.198;6.592;2024-03-23T13:49:28;8.90;99.90
20483;DHT22;10400;53.198;6.592;2024-03-23T13:51:55;8.60;99.90
20483;DHT22;10400;53.198;6.592;2024-03-23T13:54:21;8.60;99.90
20483;DHT22;10400;53.198;6.592;2024-03-23T13:56:55;8.50;99.90
20483;DHT22;10400;53.198;6.592;2024-03-23T13:59:21;8.60;99.90
20483;DHT22;10400;53.198;6.592;2024-03-23T14:01:48;8.90;99.90
20483;DHT22;10400;53.198;6.592;2024-03-23T14:04:14;8.80;99.90
20483;DHT22;10400;53.198;6.592;2024-03-23T14:06:42;8.90;99.90
20483;DHT22;10400;53.198;6.592;2024-03-23T14:09:11;8.70;99.90
20483;DHT22;10400;53.198;6.592;2024-03-23T14:11:37;8.60;99.90
20483;DHT22;10400;53.198;6.592;2024-03-23T14:14:03;8.40;99.90
20483;DHT22;10400;53.198;6.592;2024-03-23T14:16:32;8.40;99.90
20483;DHT22;10400;53.198;6.592;2024-03-23T14:18:58;8.50;99.90
20483;DHT22;10400;53.198;6.592;2024-03-23T14:21:24;8.50;99.90
20483;DHT22;10400;53.198;6.592;2024-03-23T14:23:50;8.60;99.90
20483;DHT22;10400;53.198;6.592;2024-03-23T14:26:15;8.50;99.90
20483;DHT22;10400;53.198;6.592;2024-03-23T14:28:41;8.70;99.90
20483;DHT22;10400;53.198;6.592;2024-03-23T14:31:07;8.70;99.90
20483;DHT22;10400;53.198;6.592;2024-03-23T14:33:37;8.60;99.90
20483;DHT22;10400;53.198;6.592;2024-03-23T14:36:03;8.40;99.90
20483;DHT22;10400;53.198;6.592;2024-03-23T14:38:29;8.50;99.90
20483;DHT22;10400;53.198;6.592;2024-03-23T14:40:58;8.60;99.90
20483;DHT22;10400;53.198;6.592;2024-03-23T14:43:24;8.70;99.90
20483;DHT22;10400;53.198;6.592;2024-03-23T14:46:15;8.80;99.90
20483;DHT22;10400;53.198;6.592;2024-03-23T14:48:43;8.80;99.90
20483;DHT22;10400;53.198;6.592;2024-03-23T14:51:09;8.70;99.90
20483;DHT22;10400;53.198;6.592;2024-03-23T14:53:40;8.60;99.90
20483;DHT22;10400;53.198;6.592;2024-03-23T14:56:07;8.70;99.90
20483;DHT22;10400;53.198;6.592;2024-03-23T14:58:33;8.60;99.90
20483;DHT22;10400;53.198;6.592;2024-03-23T15:03:27;8.50;99.90
20483;DHT22;10400;53.198;6.592;2024-03-23T15:05:58;8.50;99.90
20483;DHT22;10400;53.198;6.592;2024-03-23T15:08:24;8.50;99.90
20483;DHT22;10400;53.198;6.592;2024-03-23T15:10:50;8.50;99.90
20483;DHT22;10400;53.198;6.592;2024-03-23T15:13:16;8.50;99.90
20483;DHT22;10400;53.198;6.592;2024-03-23T15:15:43;8.40;99.90
20483;DHT22;10400;53.198;6.592;2024-03-23T15:18:13;8.40;99.90
20483;DHT22;10400;53.198;6.592;2024-03-23T15:21:00;8.40;99.90
20483;DHT22;10400;53.198;6.592;2024-03-23T15:23:33;8.70;99.90
20483;DHT22;10400;53.198;6.592;2024-03-23T15:26:00;8.80;99.90
20483;DHT22;10400;53.198;6.592;2024-03-23T15:28:27;8.80;99.90
20483;DHT22;10400;53.198;6.592;2024-03-23T15:31:07;8.80;99.90
20483;DHT22;10400;53.198;6.592;2024-03-23T15:33:33;9.00;99.90
20483;DHT22;10400;53.198;6.592;2024-03-23T15:36:02;8.80;99.90
20483;DHT22;10400;53.198;6.592;2024-03-23T15:38:28;8.80;99.90
20483;DHT22;10400;53.198;6.592;2024-03-23T15:40:57;8.80;99.90
20483;DHT22;10400;53.198;6.592;2024-03-23T15:43:23;8.90;99.90
20483;DHT22;10400;53.198;6.592;2024-03-23T15:46:02;8.90;99.90
20483;DHT22;10400;53.198;6.592;2024-03-23T15:48:29;9.10;99.90
20483;DHT22;10400;53.198;6.592;2024-03-23T15:50:59;9.00;99.90
20483;DHT22;10400;53.198;6.592;2024-03-23T15:53:26;9.00;99.90
20483;DHT22;10400;53.198;6.592;2024-03-23T15:56:02;8.90;99.90
20483;DHT22;10400;53.198;6.592;2024-03-23T15:58:29;8.90;99.90
20483;DHT22;10400;53.198;6.592;2024-03-23T16:01:02;9.20;99.90
20483;DHT22;10400;53.198;6.592;2024-03-23T16:03:28;9.30;99.90
20483;DHT22;10400;53.198;6.592;2024-03-23T16:05:55;9.20;99.90
20483;DHT22;10400;53.198;6.592;2024-03-23T16:08:21;9.20;99.90
20483;DHT22;10400;53.198;6.592;2024-03-23T16:10:48;9.10;99.90
20483;DHT22;10400;53.198;6.592;2024-03-23T16:13:14;9.10;99.90
20483;DHT22;10400;53.198;6.592;2024-03-23T16:15:40;9.20;99.90
20483;DHT22;10400;53.198;6.592;2024-03-23T16:18:06;9.30;99.90
20483;DHT22;10400;53.198;6.592;2024-03-23T16:20:32;9.20;99.90
20483;DHT22;10400;53.198;6.592;2024-03-23T16:22:59;9.10;99.90
20483;DHT22;10400;53.198;6.592;2024-03-23T16:25:25;9.10;99.90
20483;DHT22;10400;53.198;6.592;2024-03-23T16:27:51;8.90;99.90
20483;DHT22;10400;53.198;6.592;2024-03-23T16:30:16;8.80;99.90
20483;DHT22;10400;53.198;6.592;2024-03-23T16:32:42;9.00;99.90
20483;DHT22;10400;53.198;6.592;2024-03-23T16:35:08;9.10;99.90
20483;DHT22;10400;53.198;6.592;2024-03-23T16:37:37;9.20;99.90
20483;DHT22;10400;53.198;6.592;2024-03-23T16:40:02;9.10;99.90
20483;DHT22;10400;53.198;6.592;2024-03-23T16:42:29;9.00;99.90
20483;DHT22;10400;53.198;6.592;2024-03-23T16:44:55;9.00;99.90
20483;DHT22;10400;53.198;6.592;2024-03-23T16:47:21;8.90;99.90
20483;DHT22;10400;53.198;6.592;2024-03-23T16:49:46;9.00;99.90